Time;durP1;ratioP1;P1;durP2;ratioP2;P2;SDS_P1;SDS_P2;PMS_P1;PMS_P2;Temp;Humidity;BMP_temperature;BMP_pressure;BME280_temperature;BME280_humidity;BME280_pressure;Samples;Min_cycle;Max_cycle;Signal;HPM_P1;HPM_P2
2021/12/01 00:01:42;;;;;;;0.95;0.95;;;;;;;;;;5110549;27;20259;-84
2021/12/01 00:04:09;;;;;;;1.65;1.55;;;;;;;;;;5117752;27;20191;-84
2021/12/01 00:06:37;;;;;;;1.30;1.20;;;;;;;;;;5118599;27;20255;-84
2021/12/01 00:09:05;;;;;;;1.48;1.38;;;;;;;;;;5115444;27;20277;-84
2021/12/01 00:11:33;;;;;;;1.70;1.60;;;;;;;;;;5122826;27;20220;-84
2021/12/01 00:14:01;;;;;;;1.25;1.15;;;;;;;;;;5120425;27;20197;-84
2021/12/01 00:16:28;;;;;;;1.25;1.20;;;;;;;;;;5109609;27;20241;-82
2021/12/01 00:18:55;;;;;;;2.38;1.80;;;;;;;;;;5109721;28;20249;-82
2021/12/01 00:21:22;;;;;;;1.13;1.13;;;;;;;;;;5108947;28;20283;-83
2021/12/01 00:23:49;;;;;;;1.52;1.42;;;;;;;;;;5115009;27;20254;-83
2021/12/01 00:26:16;;;;;;;1.63;1.45;;;;;;;;;;5109323;28;20540;-83
2021/12/01 00:28:45;;;;;;;1.27;1.15;;;;;;;;;;5108844;28;20195;-83
2021/12/01 00:31:12;;;;;;;1.20;1.08;;;;;;;;;;5108551;28;20258;-83
2021/12/01 00:33:41;;;;;;;1.20;1.20;;;;;;;;;;5109201;27;20192;-83
2021/12/01 00:36:13;;;;;;;1.27;1.10;;;;;;;;;;5121451;27;20594;-82
2021/12/01 00:38:41;;;;;;;1.10;1.00;;;;;;;;;;5120773;27;20329;-82
2021/12/01 00:41:08;;;;;;;1.35;1.25;;;;;;;;;;5108837;28;20290;-82
2021/12/01 00:43:38;;;;;;;1.02;0.95;;;;;;;;;;5121094;27;20261;-82
2021/12/01 00:46:19;;;;;;;1.45;1.08;;;3.80;99.90;;;;;;5111537;27;20252;-82
2021/12/01 00:48:46;;;;;;;1.42;1.30;;;;;;;;;;5119798;27;20205;-82
2021/12/01 00:51:13;;;;;;;1.08;1.08;;;;;;;;;;5124839;27;20243;-82
2021/12/01 00:53:40;;;;;;;0.95;0.95;;;;;;;;;;5110022;27;20661;-82
2021/12/01 00:56:08;;;;;;;1.17;1.10;;;;;;;;;;5109950;27;20290;-82
2021/12/01 00:58:35;;;;;;;1.23;1.13;;;;;;;;;;5118690;27;20259;-82
2021/12/01 01:01:03;;;;;;;1.20;1.20;;;;;;;;;;5125966;27;20274;-82
2021/12/01 01:03:32;;;;;;;1.38;1.27;;;;;;;;;;5118705;27;20290;-82
2021/12/01 01:06:00;;;;;;;2.20;1.15;;;;;;;;;;5126674;27;20645;-82
2021/12/01 01:08:27;;;;;;;0.90;0.90;;;;;;;;;;5119788;27;20844;-82
2021/12/01 01:16:35;;;;;;;1.23;1.13;;;;;;;;;;5118185;28;20509;-82
2021/12/01 01:19:05;;;;;;;1.67;1.58;;;;;;;;;;5129647;28;20230;-81
2021/12/01 01:21:34;;;;;;;1.50;1.40;;;;;;;;;;5111538;28;20254;-82
2021/12/01 01:24:01;;;;;;;1.45;1.35;;;;;;;;;;5121914;27;20227;-82
2021/12/01 01:26:30;;;;;;;1.85;1.60;;;3.80;99.90;;;;;;5121109;28;20229;-82
2021/12/01 01:28:57;;;;;;;1.65;1.55;;;;;;;;;;5108634;28;20233;-82
2021/12/01 01:31:24;;;;;;;2.72;1.70;;;;;;;;;;5112385;27;20251;-82
2021/12/01 01:33:52;;;;;;;2.00;1.90;;;;;;;;;;5126377;27;20740;-82
2021/12/01 01:36:21;;;;;;;2.00;1.83;;;;;;;;;;5132777;27;20237;-82
2021/12/01 01:38:48;;;;;;;2.30;1.77;;;;;;;;;;5123917;27;20227;-82
2021/12/01 01:41:16;;;;;;;2.10;1.90;;;3.80;99.90;;;;;;5113186;27;20258;-82
2021/12/01 01:43:44;;;;;;;1.75;1.65;;;;;;;;;;5119823;27;20191;-83
2021/12/01 01:46:11;;;;;;;4.05;1.92;;;;;;;;;;5117672;27;20260;-82
2021/12/01 01:48:47;;;;;;;2.38;2.17;;;;;;;;;;5131599;27;20196;-82
2021/12/01 01:51:15;;;;;;;2.17;1.98;;;;;;;;;;5110496;28;20677;-82
2021/12/01 01:53:44;;;;;;;2.33;1.80;;;;;;;;;;5111902;28;20220;-82
2021/12/01 01:56:11;;;;;;;3.15;2.30;;;;;;;;;;5112266;28;20674;-82
2021/12/01 01:58:38;;;;;;;2.38;2.17;;;;;;;;;;5111752;28;20236;-82
2021/12/01 02:01:07;;;;;;;1.70;1.60;;;;;;;;;;5111519;28;20233;-82
2021/12/01 02:03:37;;;;;;;2.30;2.20;;;4.00;99.90;;;;;;5110646;28;20201;-82
2021/12/01 02:06:04;;;;;;;2.90;2.20;;;;;;;;;;5120536;27;20205;-82
2021/12/01 02:08:34;;;;;;;1.60;1.50;;;;;;;;;;5120048;27;20196;-83
2021/12/01 02:11:05;;;;;;;2.58;2.30;;;3.90;99.90;;;;;;5140469;27;20203;-82
2021/12/01 02:13:33;;;;;;;2.15;2.05;;;;;;;;;;5119546;27;20224;-83
2021/12/01 02:16:01;;;;;;;2.42;2.20;;;;;;;;;;5117090;27;20749;-83
2021/12/01 02:18:29;;;;;;;2.90;2.67;;;;;;;;;;5117484;27;20200;-82
2021/12/01 02:21:00;;;;;;;2.55;1.90;;;;;;;;;;5131977;27;20224;-83
2021/12/01 02:23:29;;;;;;;2.97;2.28;;;;;;;;;;5130776;27;20216;-82
2021/12/01 02:25:57;;;;;;;2.13;1.90;;;;;;;;;;5131609;27;20205;-82
2021/12/01 02:28:25;;;;;;;2.70;2.00;;;;;;;;;;5118891;27;20743;-82
2021/12/01 02:30:53;;;;;;;2.42;2.22;;;;;;;;;;5118029;27;20294;-82
2021/12/01 02:33:21;;;;;;;1.73;1.60;;;;;;;;;;5123981;27;20219;-83
2021/12/01 02:35:48;;;;;;;2.13;2.00;;;;;;;;;;5120440;27;20319;-82
2021/12/01 02:38:18;;;;;;;2.78;2.45;;;4.00;99.90;;;;;;5114796;27;20214;-83
2021/12/01 02:40:45;;;;;;;3.08;2.50;;;;;;;;;;5124389;27;20199;-82
2021/12/01 02:43:13;;;;;;;2.42;2.22;;;;;;;;;;5111394;27;20258;-83
2021/12/01 02:45:40;;;;;;;2.00;1.80;;;;;;;;;;5121725;27;20187;-83
2021/12/01 02:48:10;;;;;;;1.90;1.80;;;;;;;;;;5124404;27;20261;-83
2021/12/01 02:50:37;;;;;;;1.73;1.63;;;;;;;;;;5125951;27;20189;-83
2021/12/01 02:53:04;;;;;;;1.60;1.50;;;;;;;;;;5120972;27;20215;-83
2021/12/01 02:55:33;;;;;;;1.85;1.65;;;;;;;;;;5121457;27;20193;-83
2021/12/01 02:58:00;;;;;;;2.05;1.67;;;;;;;;;;5115812;27;20221;-83
2021/12/01 03:00:28;;;;;;;1.55;1.40;;;;;;;;;;5131462;27;20189;-83
2021/12/01 03:02:57;;;;;;;3.47;1.63;;;;;;;;;;5118095;27;20286;-83
2021/12/01 03:05:24;;;;;;;2.15;1.73;;;;;;;;;;5118236;27;20301;-83
2021/12/01 03:07:51;;;;;;;2.30;1.80;;;;;;;;;;5129357;27;20198;-83
2021/12/01 03:10:18;;;;;;;1.90;1.80;;;;;;;;;;5124667;27;20201;-83
2021/12/01 03:12:47;;;;;;;2.15;1.95;;;;;;;;;;5111245;28;20314;-83
2021/12/01 03:15:16;;;;;;;1.63;1.35;;;;;;;;;;5115453;27;20756;-83
2021/12/01 03:17:44;;;;;;;1.45;1.35;;;;;;;;;;5131037;27;20664;-83
2021/12/01 03:20:14;;;;;;;1.60;1.50;;;4.00;99.90;;;;;;5128687;27;20238;-83
2021/12/01 03:22:42;;;;;;;2.53;2.33;;;;;;;;;;5117685;27;20292;-83
2021/12/01 03:25:10;;;;;;;1.25;1.25;;;;;;;;;;5114309;27;20207;-83
2021/12/01 03:27:37;;;;;;;2.03;1.92;;;;;;;;;;5131165;27;20211;-83
2021/12/01 03:30:07;;;;;;;1.70;1.60;;;;;;;;;;5128473;27;20200;-83
2021/12/01 03:32:34;;;;;;;2.08;1.88;;;;;;;;;;5126743;27;20216;-83
2021/12/01 03:35:02;;;;;;;1.45;1.35;;;;;;;;;;5109482;28;20193;-83
2021/12/01 03:37:29;;;;;;;3.28;1.30;;;;;;;;;;5109998;28;20663;-83
2021/12/01 03:39:58;;;;;;;1.65;1.55;;;;;;;;;;5110087;28;20653;-83
2021/12/01 03:42:25;;;;;;;1.58;1.48;;;;;;;;;;5109269;28;20200;-83
2021/12/01 03:44:53;;;;;;;1.73;1.42;;;;;;;;;;5109571;28;20654;-83
2021/12/01 03:47:21;;;;;;;1.83;1.58;;;;;;;;;;5109565;28;20281;-83
2021/12/01 03:49:48;;;;;;;1.98;1.77;;;;;;;;;;5110702;27;20220;-83
2021/12/01 03:52:16;;;;;;;2.15;1.50;;;;;;;;;;5122792;27;20273;-83
2021/12/01 03:54:44;;;;;;;1.67;1.58;;;;;;;;;;5108525;27;20698;-82
2021/12/01 03:57:11;;;;;;;1.80;1.48;;;;;;;;;;5109898;28;20196;-83
2021/12/01 03:59:39;;;;;;;2.25;1.77;;;;;;;;;;5129320;27;20239;-83
2021/12/01 04:02:08;;;;;;;1.10;1.10;;;;;;;;;;5108784;28;20264;-83
2021/12/01 04:04:37;;;;;;;1.88;1.77;;;;;;;;;;5110208;27;20288;-83
2021/12/01 04:07:05;;;;;;;2.60;2.22;;;;;;;;;;5129670;27;20296;-83
2021/12/01 04:09:34;;;;;;;1.92;1.83;;;4.30;99.90;;;;;;5113448;27;20205;-83
2021/12/01 04:12:01;;;;;;;1.40;1.30;;;4.30;99.90;;;;;;5126635;27;20265;-82
2021/12/01 04:14:28;;;;;;;2.45;2.25;;;;;;;;;;5119449;27;20192;-83
2021/12/01 04:16:56;;;;;;;2.47;1.85;;;;;;;;;;5127054;27;20229;-82
2021/12/01 04:19:23;;;;;;;1.95;1.85;;;;;;;;;;5116250;27;20201;-83
2021/12/01 04:21:52;;;;;;;2.35;2.15;;;;;;;;;;5122252;27;20192;-83
2021/12/01 04:24:19;;;;;;;2.58;1.70;;;;;;;;;;5126261;27;20214;-83
2021/12/01 04:26:46;;;;;;;1.55;1.45;;;;;;;;;;5128549;27;20589;-83
2021/12/01 04:29:13;;;;;;;1.77;1.67;;;;;;;;;;5113360;27;20266;-82
2021/12/01 04:31:41;;;;;;;2.35;1.63;;;4.40;99.90;;;;;;5116086;27;20252;-83
2021/12/01 04:34:09;;;;;;;2.72;2.00;;;;;;;;;;5124676;27;20281;-82
2021/12/01 04:36:39;;;;;;;1.77;1.67;;;4.40;99.90;;;;;;5109174;28;20615;-82
2021/12/01 04:39:09;;;;;;;1.70;1.60;;;4.40;99.90;;;;;;5108844;28;20202;-83
2021/12/01 04:41:39;;;;;;;2.75;2.47;;;;;;;;;;5108711;28;20221;-82
2021/12/01 04:44:09;;;;;;;2.33;2.13;;;;;;;;;;5107506;28;20295;-82
2021/12/01 04:46:41;;;;;;;2.63;1.80;;;;;;;;;;5104895;28;20620;-83
2021/12/01 04:49:08;;;;;;;1.95;1.85;;;;;;;;;;5108518;28;20202;-82
2021/12/01 04:51:35;;;;;;;1.45;1.35;;;;;;;;;;5108546;28;20251;-82
2021/12/01 04:54:03;;;;;;;3.60;1.30;;;;;;;;;;5108765;28;20222;-82
2021/12/01 04:56:31;;;;;;;3.13;1.58;;;;;;;;;;5107990;28;20225;-82
2021/12/01 04:58:58;;;;;;;1.63;1.52;;;;;;;;;;5108217;28;20234;-82
2021/12/01 05:01:26;;;;;;;1.08;1.08;;;;;;;;;;5108525;28;20247;-82
2021/12/01 05:03:53;;;;;;;2.10;1.50;;;;;;;;;;5108413;28;20262;-83
2021/12/01 05:06:22;;;;;;;1.80;1.70;;;;;;;;;;5123062;27;20234;-82
2021/12/01 05:08:49;;;;;;;1.67;1.58;;;4.60;99.90;;;;;;5125072;27;20649;-82
2021/12/01 05:11:16;;;;;;;1.40;1.30;;;;;;;;;;5109797;28;20703;-82
2021/12/01 05:13:45;;;;;;;1.67;0.80;;;;;;;;;;5110212;28;20262;-82
2021/12/01 05:16:13;;;;;;;1.48;1.38;;;;;;;;;;5108812;28;20263;-83
2021/12/01 05:18:40;;;;;;;1.90;1.75;;;;;;;;;;5119809;28;20667;-82
2021/12/01 05:21:07;;;;;;;1.23;1.13;;;;;;;;;;5128679;28;20201;-82
2021/12/01 05:23:34;;;;;;;3.10;1.08;;;;;;;;;;5117167;28;20193;-82
2021/12/01 05:26:02;;;;;;;1.50;1.25;;;;;;;;;;5114251;28;20196;-82
2021/12/01 05:28:29;;;;;;;0.93;0.93;;;;;;;;;;5118850;28;20224;-82
2021/12/01 05:30:59;;;;;;;1.48;1.15;;;;;;;;;;5108554;28;20278;-82
2021/12/01 05:33:26;;;;;;;1.00;1.00;;;;;;;;;;5119346;28;20245;-82
2021/12/01 05:35:53;;;;;;;1.05;1.05;;;;;;;;;;5109768;28;20689;-82
2021/12/01 05:38:21;;;;;;;1.65;1.55;;;;;;;;;;5120156;28;20251;-82
2021/12/01 05:40:50;;;;;;;0.80;0.80;;;;;;;;;;5108258;28;20308;-82
2021/12/01 05:43:18;;;;;;;1.10;1.00;;;;;;;;;;5109277;28;21108;-82
2021/12/01 05:45:45;;;;;;;2.33;0.85;;;;;;;;;;5120002;28;20200;-84
2021/12/01 05:48:13;;;;;;;0.68;0.68;;;;;;;;;;5113526;28;20715;-84
2021/12/01 05:50:41;;;;;;;0.80;0.80;;;;;;;;;;5115042;27;20282;-84
2021/12/01 05:53:11;;;;;;;1.83;1.10;;;;;;;;;;5121412;28;20713;-84
2021/12/01 05:55:38;;;;;;;0.70;0.70;;;;;;;;;;5121839;28;20290;-84
2021/12/01 05:58:06;;;;;;;3.85;1.30;;;;;;;;;;5117837;28;20280;-84
2021/12/01 06:00:33;;;;;;;0.80;0.80;;;;;;;;;;5108669;28;20236;-84
2021/12/01 06:03:00;;;;;;;2.58;1.30;;;;;;;;;;5121515;28;20248;-84
2021/12/01 06:05:29;;;;;;;0.95;0.93;;;;;;;;;;5122642;27;20201;-84
2021/12/01 06:07:56;;;;;;;1.10;1.00;;;;;;;;;;5125152;28;20185;-84
2021/12/01 06:10:23;;;;;;;0.80;0.80;;;;;;;;;;5108038;28;20198;-83
2021/12/01 06:12:52;;;;;;;0.95;0.60;;;;;;;;;;5117828;28;20280;-84
2021/12/01 06:15:19;;;;;;;0.70;0.70;;;;;;;;;;5124972;27;20194;-84
2021/12/01 06:17:46;;;;;;;0.57;0.57;;;5.10;99.90;;;;;;5120730;27;20193;-84
2021/12/01 06:20:14;;;;;;;0.80;0.80;;;;;;;;;;5127202;27;20286;-84
2021/12/01 06:22:42;;;;;;;0.57;0.57;;;;;;;;;;5118946;27;20240;-84
2021/12/01 06:25:10;;;;;;;0.75;0.75;;;5.20;99.90;;;;;;5131720;27;20203;-84
2021/12/01 06:27:37;;;;;;;0.45;0.45;;;;;;;;;;5114381;27;20283;-84
2021/12/01 06:30:05;;;;;;;1.00;0.70;;;;;;;;;;5123787;27;20194;-83
2021/12/01 06:32:32;;;;;;;0.60;0.60;;;;;;;;;;5112624;27;20195;-84
2021/12/01 06:34:59;;;;;;;2.50;0.80;;;;;;;;;;5121909;27;20221;-84
2021/12/01 06:37:26;;;;;;;1.25;1.15;;;;;;;;;;5112129;27;20206;-83
2021/12/01 06:39:55;;;;;;;0.95;0.82;;;;;;;;;;5125079;27;20272;-84
2021/12/01 06:42:22;;;;;;;2.63;0.80;;;;;;;;;;5120017;27;20209;-83
2021/12/01 06:44:49;;;;;;;0.60;0.60;;;;;;;;;;5123161;27;20973;-83
2021/12/01 06:47:17;;;;;;;1.10;0.75;;;;;;;;;;5130216;27;20206;-84
2021/12/01 06:49:45;;;;;;;0.85;0.65;;;;;;;;;;5133119;27;20198;-84
2021/12/01 06:52:13;;;;;;;3.85;0.63;;;;;;;;;;5131005;27;20197;-84
2021/12/01 06:54:40;;;;;;;0.55;0.55;;;;;;;;;;5129633;27;20233;-84
2021/12/01 06:57:09;;;;;;;0.50;0.50;;;;;;;;;;5113792;27;20578;-83
2021/12/01 06:59:36;;;;;;;0.73;0.73;;;;;;;;;;5131560;27;20190;-84
2021/12/01 07:02:03;;;;;;;0.60;0.60;;;;;;;;;;5130310;27;20667;-83
2021/12/01 07:04:31;;;;;;;1.27;0.98;;;;;;;;;;5130240;27;20221;-84
2021/12/01 07:06:59;;;;;;;0.90;0.77;;;;;;;;;;5122844;27;20222;-83
2021/12/01 07:09:26;;;;;;;0.82;0.60;;;;;;;;;;5129827;27;20198;-83
2021/12/01 07:11:53;;;;;;;1.00;0.90;;;;;;;;;;5111673;27;20190;-84
2021/12/01 07:14:22;;;;;;;1.70;0.80;;;;;;;;;;5111613;28;20225;-84
2021/12/01 07:16:49;;;;;;;0.60;0.60;;;;;;;;;;5111936;27;20227;-84
2021/12/01 07:19:17;;;;;;;1.55;1.45;;;;;;;;;;5126811;27;20225;-84
2021/12/01 07:21:44;;;;;;;0.60;0.60;;;;;;;;;;5129110;27;20952;-85
2021/12/01 07:24:11;;;;;;;0.80;0.80;;;;;;;;;;5129957;27;20231;-84
2021/12/01 07:26:38;;;;;;;0.70;0.55;;;;;;;;;;5130972;27;20193;-84
2021/12/01 07:29:06;;;;;;;0.70;0.60;;;;;;;;;;5117136;27;20191;-84
2021/12/01 07:31:34;;;;;;;1.60;0.85;;;;;;;;;;5121159;27;20222;-84
2021/12/01 07:34:01;;;;;;;0.70;0.70;;;;;;;;;;5130311;27;20318;-85
2021/12/01 07:36:29;;;;;;;0.60;0.60;;;;;;;;;;5128271;27;20193;-84
2021/12/01 07:38:57;;;;;;;0.50;0.50;;;;;;;;;;5124188;27;20306;-84
2021/12/01 07:41:24;;;;;;;1.40;0.70;;;;;;;;;;5129254;27;20209;-84
2021/12/01 07:43:51;;;;;;;0.85;0.85;;;;;;;;;;5131681;27;20737;-84
2021/12/01 07:46:19;;;;;;;0.60;0.60;;;;;;;;;;5151518;27;20280;-84
2021/12/01 07:48:47;;;;;;;0.73;0.73;;;;;;;;;;5120403;27;20221;-84
2021/12/01 07:51:15;;;;;;;0.60;0.57;;;;;;;;;;5128162;27;20654;-84
2021/12/01 07:53:43;;;;;;;0.80;0.52;;;;;;;;;;5128813;27;20228;-84
2021/12/01 07:56:10;;;;;;;1.10;0.50;;;;;;;;;;5132605;27;20724;-84
2021/12/01 07:58:37;;;;;;;0.85;0.43;;;;;;;;;;5130901;27;20243;-84
2021/12/01 08:01:04;;;;;;;1.05;0.63;;;;;;;;;;5128248;27;20257;-85
2021/12/01 08:03:32;;;;;;;0.63;0.57;;;;;;;;;;5131615;27;20217;-84
2021/12/01 08:06:00;;;;;;;0.60;0.60;;;;;;;;;;5129553;27;20229;-84
2021/12/01 08:08:27;;;;;;;0.40;0.40;;;;;;;;;;5131201;27;20549;-84
2021/12/01 08:10:55;;;;;;;0.73;0.65;;;;;;;;;;5120322;27;20688;-84
2021/12/01 08:13:22;;;;;;;0.45;0.45;;;;;;;;;;5123301;27;20205;-85
2021/12/01 08:15:50;;;;;;;0.70;0.70;;;;;;;;;;5120160;27;20241;-84
2021/12/01 08:18:17;;;;;;;0.50;0.40;;;;;;;;;;5125191;27;20204;-85
2021/12/01 08:20:44;;;;;;;0.50;0.50;;;;;;;;;;5118311;27;20202;-85
2021/12/01 08:23:13;;;;;;;0.70;0.68;;;;;;;;;;5110580;28;20264;-85
2021/12/01 08:25:40;;;;;;;1.77;0.60;;;;;;;;;;5116441;27;20194;-83
2021/12/01 08:28:07;;;;;;;0.45;0.32;;;;;;;;;;5131943;27;20196;-84
2021/12/01 08:30:35;;;;;;;0.50;0.40;;;;;;;;;;5117979;27;20190;-85
2021/12/01 08:33:02;;;;;;;0.70;0.40;;;;;;;;;;5125727;27;20191;-84
2021/12/01 08:35:29;;;;;;;1.67;0.43;;;;;;;;;;5115759;27;20248;-85
2021/12/01 08:37:57;;;;;;;0.85;0.50;;;;;;;;;;5129843;27;20205;-84
2021/12/01 08:40:25;;;;;;;0.60;0.50;;;;;;;;;;5123498;27;20292;-84
2021/12/01 08:42:53;;;;;;;0.60;0.50;;;;;;;;;;5123394;27;20224;-84
2021/12/01 08:45:20;;;;;;;1.60;0.45;;;;;;;;;;5120051;27;20223;-84
2021/12/01 08:47:49;;;;;;;0.50;0.50;;;;;;;;;;5128789;27;20200;-84
2021/12/01 08:50:17;;;;;;;0.63;0.63;;;;;;;;;;5124412;27;20203;-84
2021/12/01 08:52:45;;;;;;;0.50;0.43;;;;;;;;;;5129980;27;20587;-84
2021/12/01 08:55:12;;;;;;;0.50;0.43;;;;;;;;;;5110356;28;20759;-84
2021/12/01 08:57:42;;;;;;;0.35;0.30;;;;;;;;;;5128413;27;20239;-84
2021/12/01 09:00:11;;;;;;;0.57;0.57;;;;;;;;;;5127157;27;20220;-84
2021/12/01 09:02:38;;;;;;;0.98;0.73;;;;;;;;;;5129700;27;20197;-85
2021/12/01 09:05:06;;;;;;;0.30;0.30;;;;;;;;;;5117782;27;20192;-84
2021/12/01 09:07:33;;;;;;;3.33;0.60;;;;;;;;;;5129932;27;20193;-85
2021/12/01 09:10:00;;;;;;;0.68;0.55;;;;;;;;;;5128691;27;20561;-84
2021/12/01 09:12:28;;;;;;;0.75;0.55;;;;;;;;;;5112220;27;20251;-83
2021/12/01 09:14:57;;;;;;;0.30;0.30;;;;;;;;;;5124035;28;20217;-85
2021/12/01 09:17:24;;;;;;;0.70;0.57;;;;;;;;;;5122038;28;20328;-85
2021/12/01 09:19:51;;;;;;;0.80;0.50;;;;;;;;;;5129998;28;20197;-85
2021/12/01 09:22:19;;;;;;;0.40;0.22;;;;;;;;;;5129053;28;20239;-85
2021/12/01 09:24:46;;;;;;;0.63;0.63;;;;;;;;;;5141413;27;20665;-85
2021/12/01 09:27:13;;;;;;;0.98;0.52;;;;;;;;;;5113833;27;20197;-84
2021/12/01 09:29:41;;;;;;;1.38;0.40;;;;;;;;;;5128426;28;20197;-84
2021/12/01 09:32:10;;;;;;;0.50;0.30;;;;;;;;;;5117937;28;20225;-84
2021/12/01 09:34:39;;;;;;;0.47;0.47;;;;;;;;;;5131573;27;20304;-85
2021/12/01 09:37:07;;;;;;;0.40;0.40;;;;;;;;;;5112668;27;20677;-84
2021/12/01 09:39:34;;;;;;;0.35;0.35;;;;;;;;;;5116851;28;20300;-85
2021/12/01 09:42:02;;;;;;;0.40;0.30;;;;;;;;;;5127975;28;20231;-85
2021/12/01 09:44:30;;;;;;;0.60;0.45;;;7.80;99.90;;;;;;5121797;28;20207;-84
2021/12/01 09:46:58;;;;;;;0.30;0.30;;;;;;;;;;5121655;28;20583;-83
2021/12/01 09:49:26;;;;;;;0.70;0.63;;;;;;;;;;5128458;28;20653;-85
2021/12/01 09:51:53;;;;;;;0.70;0.40;;;;;;;;;;5129428;27;20678;-84
2021/12/01 09:54:21;;;;;;;2.05;0.30;;;;;;;;;;5132424;27;20274;-83
2021/12/01 09:56:48;;;;;;;1.85;0.70;;;;;;;;;;5111922;28;20209;-85
2021/12/01 09:59:15;;;;;;;0.80;0.38;;;;;;;;;;5113010;28;20194;-85
2021/12/01 10:01:43;;;;;;;0.70;0.57;;;;;;;;;;5111667;28;20208;-84
2021/12/01 10:04:10;;;;;;;1.15;0.50;;;;;;;;;;5113031;28;20251;-85
2021/12/01 10:06:39;;;;;;;0.80;0.70;;;;;;;;;;5112912;27;20263;-85
2021/12/01 10:09:08;;;;;;;0.88;0.65;;;7.90;99.90;;;;;;5112208;28;20202;-85
2021/12/01 10:11:37;;;;;;;0.57;0.57;;;7.90;99.90;;;;;;5129429;27;20611;-84
2021/12/01 10:14:06;;;;;;;1.23;1.17;;;7.80;99.90;;;;;;5124706;27;20202;-84
2021/12/01 10:16:35;;;;;;;0.77;0.60;;;;;;;;;;5116595;27;20204;-84
2021/12/01 10:19:05;;;;;;;0.68;0.47;;;;;;;;;;5131361;27;20910;-85
2021/12/01 10:21:34;;;;;;;0.90;0.60;;;7.90;99.90;;;;;;5125445;27;20194;-84
2021/12/01 10:24:03;;;;;;;2.92;1.30;;;;;;;;;;5143438;27;20250;-85
2021/12/01 10:26:33;;;;;;;0.95;0.85;;;;;;;;;;5111332;27;20276;-85
2021/12/01 10:29:00;;;;;;;0.57;0.30;;;;;;;;;;5119727;27;20194;-85
2021/12/01 10:31:33;;;;;;;0.50;0.40;;;;;;;;;;5129724;27;20647;-83
2021/12/01 10:34:14;;;;;;;0.50;0.40;;;;;;;;;;5131465;27;20194;-85
2021/12/01 10:36:41;;;;;;;0.30;0.20;;;;;;;;;;5112150;28;20198;-84
2021/12/01 10:39:10;;;;;;;0.30;0.27;;;;;;;;;;5117898;27;20254;-84
2021/12/01 10:41:37;;;;;;;0.50;0.45;;;;;;;;;;5123585;27;21469;-84
2021/12/01 10:44:10;;;;;;;0.43;0.43;;;;;;;;;;5127227;27;20190;-85
2021/12/01 10:46:43;;;;;;;0.70;0.50;;;;;;;;;;5122678;27;20618;-83
2021/12/01 10:49:11;;;;;;;0.63;0.60;;;;;;;;;;5112383;28;20608;-85
2021/12/01 10:51:40;;;;;;;0.83;0.60;;;8.60;99.90;;;;;;5111262;28;20621;-85
2021/12/01 10:54:16;;;;;;;0.40;0.30;;;8.60;99.90;;;;;;5111115;28;20628;-85
2021/12/01 10:56:43;;;;;;;0.57;0.30;;;;;;;;;;5128259;27;20627;-84
2021/12/01 10:59:11;;;;;;;0.83;0.50;;;;;;;;;;5131342;27;20627;-85
2021/12/01 11:01:38;;;;;;;0.50;0.40;;;;;;;;;;5130450;27;20611;-85
2021/12/01 11:04:07;;;;;;;1.03;0.67;;;;;;;;;;5124830;27;20620;-85
2021/12/01 11:06:41;;;;;;;0.70;0.43;;;8.80;99.90;;;;;;5131904;27;20631;-85
2021/12/01 11:09:08;;;;;;;0.60;0.50;;;;;;;;;;5130033;27;20627;-85
2021/12/01 11:11:44;;;;;;;1.80;0.53;;;;;;;;;;5124834;27;20742;-85
2021/12/01 11:14:13;;;;;;;0.50;0.37;;;;;;;;;;5127132;27;20666;-85
2021/12/01 11:16:42;;;;;;;0.40;0.40;;;8.90;99.90;;;;;;5131544;27;20669;-85
2021/12/01 11:19:10;;;;;;;2.83;0.60;;;8.90;99.90;;;;;;5127084;27;20623;-85
2021/12/01 11:21:38;;;;;;;0.47;0.30;;;;;;;;;;5123054;27;20700;-85
2021/12/01 11:24:08;;;;;;;0.30;0.30;;;;;;;;;;5111655;27;20636;-85
2021/12/01 11:26:35;;;;;;;0.60;0.50;;;;;;;;;;5111749;27;21034;-85
2021/12/01 11:29:06;;;;;;;0.80;0.37;;;;;;;;;;5123677;27;20651;-85
2021/12/01 11:31:35;;;;;;;0.87;0.43;;;9.00;99.90;;;;;;5116430;27;21068;-84
2021/12/01 11:34:06;;;;;;;0.40;0.40;;;;;;;;;;5128547;27;20711;-85
2021/12/01 11:36:35;;;;;;;0.60;0.40;;;;;;;;;;5113756;27;20806;-85
2021/12/01 11:39:03;;;;;;;0.40;0.23;;;;;;;;;;5111305;28;20613;-84
2021/12/01 11:41:31;;;;;;;0.40;0.40;;;;;;;;;;5116232;27;20676;-84
2021/12/01 11:43:59;;;;;;;0.43;0.30;;;;;;;;;;5109964;28;20622;-85
2021/12/01 11:46:30;;;;;;;0.80;0.70;;;;;;;;;;5128603;27;20745;-83
2021/12/01 11:48:58;;;;;;;0.77;0.60;;;;;;;;;;5130002;27;21522;-84
2021/12/01 11:51:28;;;;;;;0.50;0.50;;;9.20;99.90;;;;;;5131182;27;20611;-85
2021/12/01 11:53:58;;;;;;;0.40;0.40;;;9.30;99.90;;;;;;5130921;27;20680;-85
2021/12/01 11:56:28;;;;;;;1.47;0.40;;;9.30;99.90;;;;;;5122323;27;20660;-85
2021/12/01 11:59:01;;;;;;;0.70;0.60;;;;;;;;;;5122701;27;20627;-84
2021/12/01 12:01:37;;;;;;;2.30;1.80;;;;;;;;;;5124593;27;20618;-84
2021/12/01 12:04:15;;;;;;;1.13;0.70;;;;;;;;;;5130441;27;20623;-84
2021/12/01 12:06:49;;;;;;;3.50;0.80;;;;;;;;;;5124289;27;20690;-84
2021/12/01 12:09:18;;;;;;;0.93;0.93;;;;;;;;;;5128367;27;20635;-84
2021/12/01 12:11:47;;;;;;;0.67;0.67;;;;;;;;;;5126479;27;20627;-83
2021/12/01 12:14:18;;;;;;;0.60;0.60;;;;;;;;;;5128718;27;20615;-83
2021/12/01 12:17:00;;;;;;;1.40;0.70;;;;;;;;;;5124050;27;20623;-83
2021/12/01 12:19:42;;;;;;;0.70;0.70;;;;;;;;;;5128538;27;20670;-83
2021/12/01 12:22:11;;;;;;;1.70;1.00;;;;;;;;;;5136809;27;20651;-84
2021/12/01 12:24:43;;;;;;;1.60;0.93;;;;;;;;;;5126065;27;20718;-83
2021/12/01 12:27:30;;;;;;;1.60;1.07;;;;;;;;;;5126078;27;20653;-83
2021/12/01 12:29:59;;;;;;;0.83;0.77;;;;;;;;;;5129240;27;20677;-84
2021/12/01 12:32:29;;;;;;;0.70;0.70;;;8.90;99.90;;;;;;5130171;27;20607;-83
2021/12/01 12:35:00;;;;;;;1.83;1.50;;;;;;;;;;5128818;27;20634;-83
2021/12/01 12:37:34;;;;;;;1.03;0.97;;;8.90;99.90;;;;;;5144668;27;20625;-83
2021/12/01 12:40:02;;;;;;;0.53;0.50;;;;;;;;;;5145139;27;20630;-84
2021/12/01 12:42:29;;;;;;;0.73;0.73;;;;;;;;;;5130316;27;20599;-83
2021/12/01 12:44:58;;;;;;;1.10;1.03;;;8.80;99.90;;;;;;5125768;27;20616;-84
2021/12/01 12:47:27;;;;;;;1.80;1.63;;;;;;;;;;5126623;27;20619;-83
2021/12/01 12:49:56;;;;;;;1.30;0.90;;;8.70;99.90;;;;;;5124033;27;21129;-83
2021/12/01 12:52:34;;;;;;;1.77;0.90;;;8.70;99.90;;;;;;5109802;28;21160;-83
2021/12/01 12:55:04;;;;;;;1.60;1.50;;;8.70;99.90;;;;;;5123112;27;20778;-83
2021/12/01 12:57:58;;;;;;;1.00;1.00;;;8.70;99.90;;;;;;5129351;27;21593;-84
2021/12/01 13:00:29;;;;;;;1.57;1.23;;;8.70;99.90;;;;;;5111217;27;20670;-83
2021/12/01 13:02:58;;;;;;;1.67;1.10;;;;;;;;;;5120331;27;20704;-83
2021/12/01 13:05:44;;;;;;;1.37;0.80;;;;;;;;;;5118626;27;20746;-83
2021/12/01 13:08:33;;;;;;;1.40;1.23;;;8.40;99.90;;;;;;5123210;27;20720;-83
2021/12/01 13:11:03;;;;;;;1.57;1.43;;;;;;;;;;5116838;27;21541;-83
2021/12/01 13:13:39;;;;;;;2.53;1.13;;;8.40;99.90;;;;;;5129535;28;20619;-83
2021/12/01 13:16:10;;;;;;;1.10;1.00;;;8.50;99.90;;;;;;5114273;28;20684;-83
2021/12/01 13:18:41;;;;;;;1.90;1.30;;;;;;;;;;5106081;28;21264;-84
2021/12/01 13:21:14;;;;;;;0.87;0.87;;;;;;;;;;5127997;27;20717;-83
2021/12/01 13:23:44;;;;;;;2.93;1.67;;;;;;;;;;5148170;27;20626;-83
2021/12/01 13:26:18;;;;;;;1.80;1.67;;;;;;;;;;5133733;27;20655;-83
2021/12/01 13:28:49;;;;;;;0.93;0.93;;;;;;;;;;5133116;27;20658;-84
2021/12/01 13:31:19;;;;;;;1.17;0.90;;;;;;;;;;5130131;27;20692;-83
2021/12/01 13:34:04;;;;;;;1.47;1.13;;;;;;;;;;5131586;27;21561;-83
2021/12/01 13:36:33;;;;;;;0.90;0.90;;;;;;;;;;5132701;27;20659;-83
2021/12/01 13:39:04;;;;;;;1.35;1.08;;;;;;;;;;5132773;27;20684;-84
2021/12/01 13:41:34;;;;;;;1.57;1.43;;;8.50;99.90;;;;;;5121873;27;20209;-83
2021/12/01 13:44:20;;;;;;;1.42;1.33;;;;;;;;;;5120689;27;20619;-83
2021/12/01 13:46:48;;;;;;;1.90;1.13;;;;;;;;;;5121188;27;20209;-83
2021/12/01 13:49:20;;;;;;;1.83;1.40;;;;;;;;;;5132197;27;20672;-84
2021/12/01 13:51:50;;;;;;;1.00;0.90;;;;;;;;;;5126020;27;20289;-83
2021/12/01 13:54:23;;;;;;;1.80;1.00;;;8.20;99.90;;;;;;5131556;27;20627;-83
2021/12/01 13:56:54;;;;;;;2.60;1.13;;;;;;;;;;5117257;27;20620;-84
2021/12/01 13:59:21;;;;;;;1.10;1.00;;;;;;;;;;5113912;27;20625;-84
2021/12/01 14:01:49;;;;;;;0.73;0.60;;;;;;;;;;5125604;27;20619;-84
2021/12/01 14:04:19;;;;;;;1.30;1.20;;;;;;;;;;5130851;27;20700;-84
2021/12/01 14:06:46;;;;;;;0.77;0.65;;;;;;;;;;5132231;27;20218;-84
2021/12/01 14:09:14;;;;;;;0.47;0.43;;;;;;;;;;5131336;27;21052;-84
2021/12/01 14:11:46;;;;;;;0.60;0.60;;;;;;;;;;5121302;27;20222;-84
2021/12/01 14:14:15;;;;;;;0.57;0.50;;;;;;;;;;5118788;27;20684;-84
2021/12/01 14:16:45;;;;;;;0.85;0.70;;;;;;;;;;5127371;27;20212;-84
2021/12/01 14:19:12;;;;;;;0.50;0.50;;;;;;;;;;5133198;27;20224;-83
2021/12/01 14:21:39;;;;;;;0.73;0.73;;;;;;;;;;5121550;27;20194;-83
2021/12/01 14:24:11;;;;;;;0.70;0.50;;;;;;;;;;5121219;27;20723;-84
2021/12/01 14:26:39;;;;;;;0.30;0.30;;;;;;;;;;5130678;27;20264;-83
2021/12/01 14:29:09;;;;;;;0.80;0.60;;;;;;;;;;5130717;27;20201;-83
2021/12/01 14:31:37;;;;;;;0.60;0.40;;;;;;;;;;5122709;27;20264;-83
2021/12/01 14:34:05;;;;;;;0.40;0.40;;;;;;;;;;5131783;27;20235;-83
2021/12/01 14:36:32;;;;;;;0.50;0.40;;;;;;;;;;5132837;27;20218;-83
2021/12/01 14:39:00;;;;;;;0.75;0.75;;;;;;;;;;5131897;27;20616;-84
2021/12/01 14:41:30;;;;;;;0.50;0.38;;;;;;;;;;5117001;27;20198;-83
2021/12/01 14:43:58;;;;;;;0.30;0.25;;;;;;;;;;5114433;27;20617;-83